createdAt,value
2017-10-05T00:02:15.745Z,55.50
2017-10-05T00:04:43.243Z,55.60
2017-10-05T00:07:11.535Z,55.70
2017-10-05T00:09:39.814Z,55.80
2017-10-05T00:12:08.121Z,55.70
2017-10-05T00:14:35.623Z,55.60
2017-10-05T00:17:03.143Z,55.80
2017-10-05T00:19:30.775Z,55.80
2017-10-05T00:21:58.266Z,55.70
2017-10-05T00:24:25.779Z,55.70
2017-10-05T00:26:53.374Z,55.70
2017-10-05T00:31:53.631Z,55.60
2017-10-05T00:34:21.147Z,55.60
2017-10-05T00:36:48.643Z,56.10
2017-10-05T00:39:16.196Z,55.60
2017-10-05T00:41:43.694Z,55.70
2017-10-05T00:44:11.307Z,55.70
2017-10-05T00:46:38.799Z,55.70
2017-10-05T00:49:06.326Z,55.60
2017-10-05T00:51:33.990Z,55.60
2017-10-05T00:54:02.250Z,55.60
2017-10-05T00:56:29.794Z,55.60
2017-10-05T00:58:57.422Z,55.60
2017-10-05T01:01:24.939Z,55.70
2017-10-05T01:03:53.216Z,55.80
2017-10-05T01:06:21.635Z,55.60
2017-10-05T01:08:49.275Z,55.60
2017-10-05T01:11:16.791Z,55.60
2017-10-05T01:13:45.063Z,55.60
2017-10-05T01:16:12.703Z,55.50
2017-10-05T01:18:40.226Z,56.20
2017-10-05T01:21:07.774Z,55.60
2017-10-05T01:23:35.281Z,55.70
2017-10-05T01:26:03.542Z,55.60
2017-10-05T01:28:31.036Z,55.50
2017-10-05T01:30:59.311Z,55.40
2017-10-05T01:33:27.587Z,55.50
2017-10-05T01:35:55.091Z,55.50
2017-10-05T01:38:22.609Z,55.60
2017-10-05T01:40:50.110Z,55.60
2017-10-05T01:43:17.630Z,55.50
2017-10-05T01:45:45.130Z,55.30
2017-10-05T01:48:14.281Z,55.50
2017-10-05T01:50:41.783Z,55.50
2017-10-05T01:53:09.301Z,55.50
2017-10-05T01:55:36.827Z,55.50
2017-10-05T01:58:04.320Z,55.50
2017-10-05T02:00:31.954Z,55.50
2017-10-05T02:02:59.465Z,55.50
2017-10-05T02:05:26.986Z,55.50
2017-10-05T02:07:54.551Z,55.50
2017-10-05T02:10:22.076Z,55.40
2017-10-05T02:12:49.573Z,55.40
2017-10-05T02:15:17.106Z,55.40
2017-10-05T02:17:44.616Z,55.50
2017-10-05T02:20:12.227Z,55.40
2017-10-05T02:22:39.726Z,55.60
2017-10-05T02:25:07.992Z,55.60
2017-10-05T02:27:36.264Z,55.50
2017-10-05T02:30:04.715Z,55.40
2017-10-05T02:32:32.237Z,55.50
2017-10-05T02:34:59.734Z,55.40
2017-10-05T02:37:27.279Z,55.50
2017-10-05T02:39:54.887Z,55.50
2017-10-05T02:42:22.407Z,55.40
2017-10-05T02:44:49.899Z,55.40
2017-10-05T02:47:17.658Z,55.50
2017-10-05T02:49:45.151Z,55.40
2017-10-05T02:52:12.675Z,55.40
2017-10-05T02:54:40.253Z,55.20
2017-10-05T02:57:07.799Z,55.40
2017-10-05T02:59:35.296Z,55.40
2017-10-05T03:02:02.815Z,55.40
2017-10-05T03:04:30.327Z,55.40
2017-10-05T03:06:58.589Z,55.50
2017-10-05T03:09:26.110Z,55.40
2017-10-05T03:11:53.608Z,55.30
2017-10-05T03:14:21.305Z,55.40
2017-10-05T03:16:48.803Z,55.40
2017-10-05T03:19:16.427Z,55.40
2017-10-05T03:21:43.919Z,55.50
2017-10-05T03:24:11.563Z,55.40
2017-10-05T03:26:39.059Z,56.00
2017-10-05T03:29:07.371Z,55.30
2017-10-05T03:31:35.107Z,55.30
2017-10-05T03:34:02.707Z,55.20
2017-10-05T03:36:30.221Z,55.20
2017-10-05T03:38:57.828Z,55.30
2017-10-05T03:41:25.342Z,55.30
2017-10-05T03:43:52.847Z,55.30
2017-10-05T03:46:20.367Z,55.40
2017-10-05T03:48:47.926Z,55.30
2017-10-05T03:51:15.559Z,55.30
2017-10-05T03:53:43.053Z,55.20
2017-10-05T03:56:10.601Z,55.20
2017-10-05T03:58:38.100Z,55.20
2017-10-05T04:01:06.396Z,55.40
2017-10-05T04:03:33.893Z,55.40
2017-10-05T04:06:01.514Z,55.30
2017-10-05T04:08:29.019Z,55.30
2017-10-05T04:10:56.538Z,55.30
2017-10-05T04:13:24.031Z,55.40
2017-10-05T04:15:51.652Z,55.90
2017-10-05T04:18:19.183Z,55.30
2017-10-05T04:20:46.683Z,55.30
2017-10-05T04:23:14.204Z,55.30
2017-10-05T04:25:41.707Z,55.30
2017-10-05T04:28:10.735Z,55.30
2017-10-05T04:30:38.314Z,55.30
2017-10-05T04:33:05.843Z,55.30
2017-10-05T04:35:33.435Z,55.40
2017-10-05T04:38:00.995Z,55.30
2017-10-05T04:40:28.514Z,55.20
2017-10-05T04:42:56.015Z,55.30
2017-10-05T04:45:23.515Z,55.30
2017-10-05T04:47:51.783Z,55.20
2017-10-05T04:50:20.051Z,55.20
2017-10-05T04:52:48.332Z,55.30
2017-10-05T04:55:16.615Z,55.30
2017-10-05T04:57:44.127Z,55.20
2017-10-05T05:00:11.653Z,55.40
2017-10-05T05:02:39.147Z,55.20
2017-10-05T05:05:06.670Z,55.30
2017-10-05T05:07:34.215Z,55.10
2017-10-05T05:10:01.733Z,55.20
2017-10-05T05:12:30.008Z,55.00
2017-10-05T05:14:58.318Z,55.20
2017-10-05T05:17:25.886Z,55.20
2017-10-05T05:19:53.395Z,55.20
2017-10-05T05:22:20.992Z,55.10
2017-10-05T05:24:48.487Z,55.20
2017-10-05T05:27:16.106Z,55.20
2017-10-05T05:29:43.748Z,55.80
2017-10-05T05:32:11.310Z,55.30
2017-10-05T05:34:38.818Z,55.20
2017-10-05T05:37:06.347Z,55.20
2017-10-05T05:39:33.855Z,55.10
2017-10-05T05:42:01.372Z,55.10
2017-10-05T05:44:28.900Z,55.10
2017-10-05T05:46:56.422Z,55.10
2017-10-05T05:49:23.919Z,55.00
2017-10-05T05:51:51.442Z,55.10
2017-10-05T05:54:18.938Z,55.10
2017-10-05T05:56:46.547Z,55.00
2017-10-05T05:59:14.223Z,55.00
2017-10-05T06:01:41.723Z,55.00
2017-10-05T06:04:09.233Z,55.00
2017-10-05T06:06:36.726Z,55.10
2017-10-05T06:09:04.245Z,55.20
2017-10-05T06:11:31.739Z,55.20
2017-10-05T06:13:59.253Z,55.10
2017-10-05T06:16:26.790Z,54.80
2017-10-05T06:18:54.450Z,54.90
2017-10-05T06:21:21.959Z,54.80
2017-10-05T06:23:49.487Z,54.90
2017-10-05T06:26:17.048Z,54.80
2017-10-05T06:28:44.542Z,54.70
2017-10-05T06:31:12.806Z,55.00
2017-10-05T06:33:41.087Z,54.80
2017-10-05T06:36:09.363Z,54.70
2017-10-05T06:38:36.879Z,54.70
2017-10-05T06:41:04.382Z,54.80
2017-10-05T06:43:32.644Z,54.80
2017-10-05T06:46:00.188Z,54.70
2017-10-05T06:48:27.707Z,54.70
2017-10-05T06:50:55.227Z,54.80
2017-10-05T06:53:23.516Z,54.80
2017-10-05T06:55:51.140Z,54.80
2017-10-05T06:58:19.406Z,54.40
2017-10-05T07:00:46.935Z,54.70
2017-10-05T07:03:14.453Z,54.80
2017-10-05T07:05:41.947Z,54.80
2017-10-05T07:08:09.453Z,54.80
2017-10-05T07:10:37.724Z,54.90
2017-10-05T07:13:05.992Z,54.90
2017-10-05T07:15:34.267Z,54.90
2017-10-05T07:18:01.770Z,54.90
2017-10-05T07:20:29.618Z,54.90
2017-10-05T07:22:57.166Z,54.90
2017-10-05T07:25:24.679Z,54.80
2017-10-05T07:27:52.236Z,54.80
2017-10-05T07:30:19.758Z,54.80
2017-10-05T07:32:47.313Z,54.90
2017-10-05T07:35:14.828Z,54.90
2017-10-05T07:37:42.391Z,54.90
2017-10-05T07:40:09.896Z,54.80
2017-10-05T07:42:37.624Z,54.80
2017-10-05T07:45:05.267Z,54.90
2017-10-05T07:47:32.923Z,54.80
2017-10-05T07:50:00.422Z,54.80
2017-10-05T07:52:27.935Z,54.70
2017-10-05T07:54:55.430Z,55.40
2017-10-05T07:57:23.151Z,54.80
2017-10-05T07:59:50.647Z,54.90
2017-10-05T08:02:18.171Z,54.90
2017-10-05T08:04:45.740Z,54.80
2017-10-05T08:07:13.255Z,54.80
2017-10-05T08:09:41.533Z,54.80
2017-10-05T08:12:09.937Z,54.80
2017-10-05T08:14:37.455Z,54.80
2017-10-05T08:17:05.761Z,55.00
2017-10-05T08:19:33.331Z,55.00
2017-10-05T08:22:00.840Z,54.90
2017-10-05T08:24:29.119Z,54.80
2017-10-05T08:26:57.430Z,54.90
2017-10-05T08:29:24.918Z,54.80
2017-10-05T08:31:53.940Z,54.90
2017-10-05T08:34:22.220Z,54.80
2017-10-05T08:36:49.764Z,54.70
2017-10-05T08:39:17.258Z,54.70
2017-10-05T08:41:44.763Z,54.70
2017-10-05T08:44:12.392Z,54.70
2017-10-05T08:46:39.896Z,54.80
2017-10-05T08:49:08.169Z,54.80
2017-10-05T08:51:36.442Z,54.80
2017-10-05T08:54:04.718Z,54.70
2017-10-05T08:56:32.309Z,54.70
2017-10-05T08:58:59.952Z,54.80
2017-10-05T09:01:27.455Z,54.80
2017-10-05T09:03:54.982Z,54.80
2017-10-05T09:06:22.487Z,54.80
2017-10-05T09:08:50.008Z,54.90
2017-10-05T09:11:17.503Z,54.80
2017-10-05T09:13:45.786Z,54.80
2017-10-05T09:16:13.295Z,54.80
2017-10-05T09:18:40.858Z,54.90
2017-10-05T09:21:08.469Z,54.90
2017-10-05T09:23:35.971Z,55.00
2017-10-05T09:26:03.470Z,54.90
2017-10-05T09:28:30.983Z,55.00
2017-10-05T09:30:58.489Z,54.90
2017-10-05T09:33:26.017Z,54.90
2017-10-05T09:35:54.322Z,54.90
2017-10-05T09:38:21.831Z,54.90
2017-10-05T09:40:49.550Z,54.80
2017-10-05T09:43:17.048Z,54.90
2017-10-05T09:45:44.564Z,55.50
2017-10-05T09:48:12.070Z,55.00
2017-10-05T09:50:39.611Z,54.90
2017-10-05T09:53:07.109Z,55.00
2017-10-05T09:55:34.619Z,55.00
2017-10-05T09:58:02.311Z,55.00
2017-10-05T10:00:29.970Z,55.00
2017-10-05T10:02:57.473Z,55.00
2017-10-05T10:05:24.998Z,55.00
2017-10-05T10:07:52.499Z,55.00
2017-10-05T10:10:20.199Z,55.00
2017-10-05T10:12:47.751Z,55.00
2017-10-05T10:15:15.269Z,55.00
2017-10-05T10:17:42.791Z,54.90
2017-10-05T10:20:10.301Z,54.90
2017-10-05T10:22:38.595Z,55.00
2017-10-05T10:25:06.163Z,54.90
2017-10-05T10:27:33.690Z,55.60
2017-10-05T10:30:01.989Z,55.10
2017-10-05T10:32:29.488Z,55.10
2017-10-05T10:34:56.987Z,55.00
2017-10-05T10:37:24.500Z,55.00
2017-10-05T10:39:53.602Z,55.10
2017-10-05T10:42:21.101Z,55.00
2017-10-05T10:44:48.643Z,55.30
2017-10-05T10:47:16.142Z,55.00
2017-10-05T10:49:43.636Z,55.00
2017-10-05T10:52:11.915Z,55.00
2017-10-05T10:54:40.185Z,55.00
2017-10-05T10:57:08.443Z,55.10
2017-10-05T10:59:36.070Z,55.00
2017-10-05T11:02:03.587Z,55.50
2017-10-05T11:04:31.149Z,55.00
2017-10-05T11:06:58.646Z,55.00
2017-10-05T11:09:26.203Z,54.90
2017-10-05T11:11:53.723Z,55.10
2017-10-05T11:14:21.246Z,55.00
2017-10-05T11:16:48.749Z,55.00
2017-10-05T11:19:16.266Z,55.00
2017-10-05T11:21:43.760Z,54.90
2017-10-05T11:24:11.396Z,55.00
2017-10-05T11:26:38.911Z,55.00
2017-10-05T11:29:06.435Z,55.00
2017-10-05T11:31:33.934Z,55.00
2017-10-05T11:34:01.471Z,55.00
2017-10-05T11:36:29.740Z,54.60
2017-10-05T11:38:57.294Z,55.10
2017-10-05T11:41:24.811Z,55.00
2017-10-05T11:43:52.337Z,55.00
2017-10-05T11:46:20.688Z,55.00
2017-10-05T11:48:48.219Z,55.10
2017-10-05T11:51:15.748Z,55.10
2017-10-05T11:53:43.275Z,55.00
2017-10-05T11:56:10.784Z,55.00
2017-10-05T11:58:38.315Z,54.90
2017-10-05T12:01:05.811Z,55.00
2017-10-05T12:03:33.335Z,55.00
2017-10-05T12:06:00.972Z,55.00
2017-10-05T12:08:28.491Z,55.00
2017-10-05T12:10:56.008Z,55.00
2017-10-05T12:13:23.511Z,55.00
2017-10-05T12:15:51.024Z,55.00
2017-10-05T12:18:18.527Z,55.00
2017-10-05T12:20:46.799Z,55.10
2017-10-05T12:23:15.092Z,55.10
2017-10-05T12:25:42.670Z,55.00
2017-10-05T12:28:10.187Z,55.00
2017-10-05T12:30:38.467Z,55.00
2017-10-05T12:33:06.747Z,54.90
2017-10-05T12:35:34.330Z,54.90
2017-10-05T12:38:01.867Z,54.90
2017-10-05T12:40:29.363Z,55.00
2017-10-05T12:42:56.855Z,54.90
2017-10-05T12:45:24.365Z,55.00
2017-10-05T12:47:51.866Z,55.00
2017-10-05T12:50:20.185Z,55.00
2017-10-05T12:52:47.738Z,55.00
2017-10-05T12:55:15.234Z,55.00
2017-10-05T12:57:42.735Z,55.00
2017-10-05T13:00:10.270Z,55.00
2017-10-05T13:02:37.793Z,55.00
2017-10-05T13:05:05.297Z,55.10
2017-10-05T13:07:32.855Z,55.50
2017-10-05T13:10:00.536Z,55.00
2017-10-05T13:12:28.040Z,55.00
2017-10-05T13:14:55.715Z,55.00
2017-10-05T13:17:23.231Z,55.00
2017-10-05T13:19:50.760Z,55.00
2017-10-05T13:22:18.259Z,55.00
2017-10-05T13:24:46.550Z,55.00
2017-10-05T13:27:14.143Z,55.00
2017-10-05T13:29:41.671Z,55.00
2017-10-05T13:32:09.180Z,55.00
2017-10-05T13:34:36.722Z,55.00
2017-10-05T13:37:04.228Z,54.90
2017-10-05T13:39:31.842Z,54.70
2017-10-05T13:41:59.471Z,54.80
2017-10-05T13:44:27.007Z,54.90
2017-10-05T13:46:54.591Z,55.00
2017-10-05T13:49:22.131Z,55.00
2017-10-05T13:51:49.893Z,55.00
2017-10-05T13:54:17.415Z,55.00
2017-10-05T13:56:45.681Z,54.80
2017-10-05T13:59:14.006Z,54.80
2017-10-05T14:01:41.739Z,54.80
2017-10-05T14:04:09.265Z,54.80
2017-10-05T14:06:36.839Z,54.80
2017-10-05T14:09:04.401Z,54.70
2017-10-05T14:11:32.678Z,55.40
2017-10-05T14:14:00.288Z,54.80
2017-10-05T14:16:27.800Z,54.80
2017-10-05T14:18:55.295Z,54.90
2017-10-05T14:21:23.027Z,54.80
2017-10-05T14:23:50.519Z,54.90
2017-10-05T14:26:18.053Z,54.80
2017-10-05T14:28:45.551Z,54.90
2017-10-05T14:31:13.275Z,54.90
2017-10-05T14:33:40.786Z,55.00
2017-10-05T14:36:08.279Z,54.90
2017-10-05T14:38:35.774Z,54.70
2017-10-05T14:41:03.294Z,54.70
2017-10-05T14:43:30.801Z,54.70
2017-10-05T14:45:58.414Z,54.80
2017-10-05T14:48:25.918Z,54.80
2017-10-05T14:50:53.446Z,54.80
2017-10-05T14:53:20.962Z,54.80
2017-10-05T14:55:48.591Z,54.80
2017-10-05T14:58:16.260Z,54.80
2017-10-05T15:00:43.776Z,54.70
2017-10-05T15:03:11.307Z,54.80
2017-10-05T15:05:38.804Z,54.90
2017-10-05T15:08:06.320Z,54.90
2017-10-05T15:10:33.819Z,54.90
2017-10-05T15:13:01.331Z,54.90
2017-10-05T15:15:28.835Z,54.80
2017-10-05T15:17:56.505Z,54.80
2017-10-05T15:20:24.014Z,54.80
2017-10-05T15:22:51.511Z,54.70
2017-10-05T15:25:19.063Z,54.80
2017-10-05T15:27:46.562Z,54.80
2017-10-05T15:30:14.090Z,54.80
2017-10-05T15:32:41.658Z,54.80
2017-10-05T15:35:09.196Z,54.70
2017-10-05T15:37:36.696Z,54.70
2017-10-05T15:40:05.716Z,54.70
2017-10-05T15:42:33.995Z,54.80
2017-10-05T15:45:01.518Z,54.70
2017-10-05T15:47:29.831Z,54.70
2017-10-05T15:49:57.327Z,55.10
2017-10-05T15:52:24.823Z,54.70
2017-10-05T15:54:53.102Z,54.80
2017-10-05T15:57:21.386Z,54.70
2017-10-05T15:59:48.970Z,54.70
2017-10-05T16:02:16.517Z,54.80
2017-10-05T16:04:44.020Z,54.70
2017-10-05T16:07:11.725Z,54.70
2017-10-05T16:09:39.235Z,54.80
2017-10-05T16:12:06.842Z,54.80
2017-10-05T16:14:34.339Z,54.60
2017-10-05T16:17:01.847Z,54.80
2017-10-05T16:19:29.347Z,54.90
2017-10-05T16:21:56.871Z,54.70
2017-10-05T16:24:24.382Z,54.70
2017-10-05T16:26:52.665Z,54.70
2017-10-05T16:29:20.947Z,54.80
2017-10-05T16:31:48.702Z,54.80
2017-10-05T16:34:16.307Z,54.60
2017-10-05T16:36:43.855Z,54.60
2017-10-05T16:39:11.393Z,54.70
2017-10-05T16:41:38.951Z,55.30
2017-10-05T16:44:06.573Z,54.60
2017-10-05T16:46:34.067Z,54.70
2017-10-05T16:49:01.559Z,54.70
2017-10-05T16:51:29.074Z,54.70
2017-10-05T16:53:56.922Z,54.60
2017-10-05T16:56:24.494Z,54.70
2017-10-05T16:58:52.139Z,55.20
2017-10-05T17:01:19.635Z,54.70
2017-10-05T17:03:47.127Z,55.10
2017-10-05T17:06:15.402Z,54.70
2017-10-05T17:08:43.705Z,54.60
2017-10-05T17:11:11.206Z,54.60
2017-10-05T17:13:38.723Z,54.60
2017-10-05T17:16:06.219Z,54.50
2017-10-05T17:18:33.862Z,54.60
2017-10-05T17:21:01.371Z,54.60
2017-10-05T17:23:28.886Z,54.60
2017-10-05T17:25:56.395Z,54.60
2017-10-05T17:28:23.920Z,54.60
2017-10-05T17:30:52.202Z,54.60
2017-10-05T17:33:19.974Z,54.60
2017-10-05T17:35:47.470Z,54.60
2017-10-05T17:38:14.963Z,54.60
2017-10-05T17:40:43.250Z,54.60
2017-10-05T17:43:10.811Z,54.60
2017-10-05T17:45:38.310Z,54.60
2017-10-05T17:48:05.817Z,54.50
2017-10-05T17:50:33.319Z,54.60
2017-10-05T17:53:00.811Z,54.60
2017-10-05T17:55:28.335Z,54.60
2017-10-05T17:57:55.838Z,54.60
2017-10-05T18:00:23.351Z,54.50
2017-10-05T18:02:50.882Z,54.50
2017-10-05T18:05:18.528Z,54.60
2017-10-05T18:07:46.031Z,54.60
2017-10-05T18:10:13.623Z,54.50
2017-10-05T18:12:41.127Z,54.50
2017-10-05T18:15:08.750Z,54.60
2017-10-05T18:17:36.347Z,54.50
2017-10-05T18:20:04.064Z,54.50
2017-10-05T18:22:31.559Z,54.40
2017-10-05T18:24:59.086Z,54.40
2017-10-05T18:27:26.647Z,54.50
2017-10-05T18:29:54.147Z,54.50
2017-10-05T18:32:22.475Z,54.50
2017-10-05T18:34:49.980Z,54.50
2017-10-05T18:37:17.475Z,54.40
2017-10-05T18:39:44.982Z,54.40
2017-10-05T18:42:12.483Z,54.30
2017-10-05T18:44:40.003Z,54.40
2017-10-05T18:47:07.506Z,54.40
2017-10-05T18:49:35.049Z,54.30
2017-10-05T18:52:02.623Z,54.20
2017-10-05T18:54:30.136Z,54.30
2017-10-05T18:56:57.730Z,54.30
2017-10-05T18:59:25.227Z,54.30
2017-10-05T19:01:53.487Z,54.80
2017-10-05T19:04:21.125Z,54.20
2017-10-05T19:06:48.624Z,54.20
2017-10-05T19:09:16.909Z,54.20
2017-10-05T19:11:44.423Z,54.20
2017-10-05T19:14:11.937Z,54.10
2017-10-05T19:16:39.447Z,54.20
2017-10-05T19:19:06.963Z,54.20
2017-10-05T19:21:34.474Z,54.30
2017-10-05T19:24:01.983Z,54.20
2017-10-05T19:26:29.488Z,54.30
2017-10-05T19:28:57.756Z,54.10
2017-10-05T19:31:26.040Z,54.10
2017-10-05T19:33:53.550Z,54.10
2017-10-05T19:36:21.080Z,54.20
2017-10-05T19:38:48.579Z,54.20
2017-10-05T19:41:16.080Z,54.30
2017-10-05T19:43:43.738Z,54.50
2017-10-05T19:46:11.516Z,54.20
2017-10-05T19:48:39.031Z,54.20
2017-10-05T19:51:06.814Z,54.20
2017-10-05T19:53:34.347Z,54.20
2017-10-05T19:56:02.751Z,54.10
2017-10-05T19:58:30.252Z,54.10
2017-10-05T20:01:00.869Z,54.10
2017-10-05T20:03:28.376Z,54.00
2017-10-05T20:05:55.910Z,54.70
2017-10-05T20:08:24.184Z,54.10
2017-10-05T20:10:51.720Z,54.10
2017-10-05T20:13:19.237Z,54.00
2017-10-05T20:16:01.636Z,54.10
2017-10-05T20:18:32.003Z,54.00
2017-10-05T20:21:01.087Z,54.10
2017-10-05T20:23:43.468Z,54.10
2017-10-05T20:26:29.819Z,54.10
2017-10-05T20:29:15.764Z,54.20
2017-10-05T20:31:45.727Z,54.20
2017-10-05T20:34:13.398Z,54.10
2017-10-05T20:36:40.900Z,54.10
2017-10-05T20:39:08.416Z,54.70
2017-10-05T20:41:35.968Z,54.00
2017-10-05T20:44:03.615Z,54.00
2017-10-05T20:46:31.124Z,54.00
2017-10-05T20:48:58.640Z,54.00
2017-10-05T20:51:26.208Z,54.10
2017-10-05T20:53:53.723Z,54.10
2017-10-05T20:56:21.992Z,54.20
2017-10-05T20:58:50.267Z,54.20
2017-10-05T21:01:17.800Z,54.10
2017-10-05T21:03:46.123Z,54.00
2017-10-05T21:06:13.784Z,54.00
2017-10-05T21:08:41.280Z,54.00
2017-10-05T21:11:08.776Z,54.00
2017-10-05T21:13:36.554Z,53.90
2017-10-05T21:16:04.056Z,54.00
2017-10-05T21:18:31.559Z,54.00
2017-10-05T21:20:59.320Z,54.10
2017-10-05T21:23:26.820Z,54.00
2017-10-05T21:25:54.438Z,54.10
2017-10-05T21:28:22.037Z,54.00
2017-10-05T21:30:49.549Z,54.00
2017-10-05T21:33:17.051Z,54.00
2017-10-05T21:35:44.575Z,53.90
2017-10-05T21:38:12.151Z,54.00
2017-10-05T21:40:39.655Z,54.10
2017-10-05T21:43:07.192Z,54.00
2017-10-05T21:45:34.705Z,54.00
2017-10-05T21:48:02.237Z,54.60
2017-10-05T21:50:29.744Z,54.10
2017-10-05T21:52:57.455Z,54.10
2017-10-05T21:55:25.116Z,54.00
2017-10-05T21:57:52.654Z,54.00
2017-10-05T22:00:20.420Z,54.10
2017-10-05T22:02:47.947Z,54.00
2017-10-05T22:05:16.219Z,54.00
2017-10-05T22:07:44.508Z,53.90
2017-10-05T22:10:12.043Z,53.90
2017-10-05T22:12:39.576Z,53.90
2017-10-05T22:15:07.076Z,53.90
2017-10-05T22:17:34.694Z,54.00
2017-10-05T22:20:02.199Z,53.90
2017-10-05T22:22:29.807Z,54.00
2017-10-05T22:24:57.423Z,54.00
2017-10-05T22:27:24.964Z,54.00
2017-10-05T22:29:52.590Z,53.90
2017-10-05T22:32:20.119Z,54.00
2017-10-05T22:34:47.661Z,53.90
2017-10-05T22:37:15.200Z,54.00
2017-10-05T22:39:42.703Z,54.00
2017-10-05T22:42:10.268Z,54.00
2017-10-05T22:44:38.536Z,54.00
2017-10-05T22:47:06.060Z,54.50
2017-10-05T22:49:33.615Z,53.90
2017-10-05T22:52:01.175Z,53.90
2017-10-05T22:54:28.703Z,53.90
2017-10-05T22:56:56.231Z,53.90
2017-10-05T22:59:24.541Z,53.90
2017-10-05T23:01:52.071Z,53.90
2017-10-05T23:04:19.595Z,53.90
2017-10-05T23:06:47.119Z,53.90
2017-10-05T23:09:14.668Z,53.70
2017-10-05T23:11:42.204Z,53.80
2017-10-05T23:14:09.733Z,53.90
2017-10-05T23:16:37.252Z,53.80
2017-10-05T23:19:04.760Z,53.90
2017-10-05T23:21:33.028Z,53.90
2017-10-05T23:24:01.334Z,53.80
2017-10-05T23:26:28.910Z,53.80
2017-10-05T23:28:56.439Z,53.80
2017-10-05T23:31:24.018Z,53.90
2017-10-05T23:33:51.547Z,53.90
2017-10-05T23:36:19.103Z,53.90
2017-10-05T23:38:46.624Z,53.90
2017-10-05T23:41:14.248Z,53.80
2017-10-05T23:43:42.568Z,53.80
2017-10-05T23:46:10.844Z,53.90
2017-10-05T23:48:39.142Z,53.80
2017-10-05T23:51:06.792Z,53.80
2017-10-05T23:53:34.352Z,53.80
2017-10-05T23:56:01.860Z,53.70
2017-10-05T23:58:29.391Z,53.80
